createdAt,value
2019-03-22T00:00:07.629Z,6.62
2019-03-22T00:01:07.656Z,6.62
2019-03-22T00:02:07.684Z,6.57
2019-03-22T00:03:07.716Z,6.57
2019-03-22T00:04:07.742Z,6.43
2019-03-22T00:05:07.769Z,6.38
2019-03-22T00:06:07.802Z,6.52
2019-03-22T00:07:07.827Z,6.41
2019-03-22T00:08:07.858Z,6.29
2019-03-22T00:09:07.881Z,6.36
2019-03-22T00:10:07.913Z,6.29
2019-03-22T00:11:07.937Z,6.26
2019-03-22T00:12:07.967Z,6.38
2019-03-22T00:13:07.996Z,6.31
2019-03-22T00:14:08.022Z,6.29
2019-03-22T00:15:08.051Z,6.26
2019-03-22T00:16:08.082Z,6.15
2019-03-22T00:17:08.105Z,6.12
2019-03-22T00:18:08.137Z,6.17
2019-03-22T00:19:08.162Z,6.20
2019-03-22T00:20:08.191Z,6.15
2019-03-22T00:21:08.218Z,6.09
2019-03-22T00:22:08.245Z,6.02
2019-03-22T00:23:08.273Z,6.06
2019-03-22T00:24:08.302Z,6.06
2019-03-22T00:25:08.330Z,5.95
2019-03-22T00:26:08.358Z,5.95
2019-03-22T00:27:16.419Z,5.83
2019-03-22T00:28:08.414Z,5.80
2019-03-22T00:29:08.442Z,5.79
2019-03-22T00:30:08.468Z,5.73
2019-03-22T00:31:08.499Z,5.73
2019-03-22T00:32:08.524Z,5.62
2019-03-22T00:33:08.559Z,5.61
2019-03-22T00:34:08.582Z,5.54
2019-03-22T00:35:08.607Z,5.62
2019-03-22T00:36:08.635Z,5.61
2019-03-22T00:37:08.664Z,5.54
2019-03-22T00:38:08.690Z,5.59
2019-03-22T00:39:08.718Z,5.58
2019-03-22T00:40:08.746Z,5.49
2019-03-22T00:41:08.775Z,5.51
2019-03-22T00:42:08.799Z,5.52
2019-03-22T00:43:08.827Z,5.46
2019-03-22T00:44:08.855Z,5.41
2019-03-22T00:45:08.885Z,5.47
2019-03-22T00:46:08.922Z,5.38
2019-03-22T00:47:08.942Z,5.36
2019-03-22T00:48:08.968Z,5.36
2019-03-22T00:49:08.994Z,5.29
2019-03-22T00:50:09.024Z,5.28
2019-03-22T00:51:09.049Z,5.29
2019-03-22T00:52:09.074Z,5.22
2019-03-22T00:53:09.103Z,5.15
2019-03-22T00:54:09.129Z,5.18
2019-03-22T00:55:09.159Z,5.10
2019-03-22T00:56:09.185Z,5.01
2019-03-22T00:57:09.212Z,5.01
2019-03-22T00:58:09.240Z,4.97
2019-03-22T00:59:09.267Z,4.98
2019-03-22T01:00:09.297Z,4.95
2019-03-22T01:01:09.322Z,4.94
2019-03-22T01:02:09.351Z,4.92
2019-03-22T01:03:09.374Z,4.86
2019-03-22T01:04:09.403Z,4.78
2019-03-22T01:05:09.429Z,4.71
2019-03-22T01:06:09.470Z,4.67
2019-03-22T01:07:09.484Z,4.67
2019-03-22T01:08:09.516Z,4.58
2019-03-22T01:09:09.538Z,4.58
2019-03-22T01:10:09.569Z,4.56
2019-03-22T01:11:09.595Z,4.63
2019-03-22T01:12:09.618Z,4.52
2019-03-22T01:13:09.647Z,4.50
2019-03-22T01:14:09.674Z,4.56
2019-03-22T01:15:09.700Z,4.49
2019-03-22T01:16:09.727Z,4.39
2019-03-22T01:17:09.758Z,4.42
2019-03-22T01:18:09.781Z,4.42
2019-03-22T01:19:09.807Z,4.49
2019-03-22T01:20:09.836Z,4.31
2019-03-22T01:21:09.865Z,4.45
2019-03-22T01:22:09.903Z,4.36
2019-03-22T01:23:09.915Z,4.39
2019-03-22T01:24:09.948Z,4.27
2019-03-22T01:25:09.968Z,4.38
2019-03-22T01:26:09.996Z,4.34
2019-03-22T01:27:10.020Z,4.32
2019-03-22T01:28:10.052Z,4.34
2019-03-22T01:29:10.086Z,4.28
2019-03-22T01:30:10.118Z,4.28
2019-03-22T01:31:10.130Z,4.24
2019-03-22T01:32:10.154Z,4.18
2019-03-22T01:33:10.186Z,4.16
2019-03-22T01:34:10.211Z,4.13
2019-03-22T01:35:10.244Z,4.14
2019-03-22T01:36:10.264Z,4.00
2019-03-22T01:37:10.288Z,4.10
2019-03-22T01:38:10.318Z,4.03
2019-03-22T01:39:10.345Z,4.03
2019-03-22T01:40:10.373Z,3.96
2019-03-22T01:41:10.444Z,3.99
2019-03-22T01:42:10.424Z,3.95
2019-03-22T01:43:10.448Z,3.96
2019-03-22T01:44:10.476Z,3.94
2019-03-22T01:45:10.502Z,3.92
2019-03-22T01:46:10.529Z,3.86
2019-03-22T01:47:10.561Z,3.89
2019-03-22T01:48:10.582Z,3.78
2019-03-22T01:49:10.609Z,3.74
2019-03-22T01:50:10.631Z,3.77
2019-03-22T01:51:10.660Z,3.81
2019-03-22T01:52:10.688Z,3.76
2019-03-22T01:53:10.718Z,3.73
2019-03-22T01:54:10.740Z,3.76
2019-03-22T01:55:10.763Z,3.77
2019-03-22T01:56:10.794Z,3.73
2019-03-22T01:57:10.818Z,3.77
2019-03-22T01:58:10.846Z,3.70
2019-03-22T01:59:10.871Z,3.81
2019-03-22T02:00:10.895Z,3.71
2019-03-22T02:01:10.925Z,3.58
2019-03-22T02:02:10.949Z,3.56
2019-03-22T02:03:10.979Z,3.64
2019-03-22T02:04:11.002Z,3.64
2019-03-22T02:05:11.032Z,3.61
2019-03-22T02:06:11.054Z,3.52
2019-03-22T02:07:11.081Z,3.52
2019-03-22T02:08:11.105Z,3.52
2019-03-22T02:09:11.133Z,3.49
2019-03-22T02:10:11.161Z,3.40
2019-03-22T02:11:11.187Z,3.45
2019-03-22T02:12:11.212Z,3.41
2019-03-22T02:13:11.241Z,3.46
2019-03-22T02:14:11.265Z,3.45
2019-03-22T02:15:11.291Z,3.53
2019-03-22T02:16:11.319Z,3.59
2019-03-22T02:17:11.344Z,3.58
2019-03-22T02:18:11.369Z,3.61
2019-03-22T02:19:11.394Z,3.53
2019-03-22T02:20:11.423Z,3.59
2019-03-22T02:21:11.447Z,3.66
2019-03-22T02:22:11.475Z,3.61
2019-03-22T02:23:11.502Z,3.58
2019-03-22T02:24:11.526Z,3.53
2019-03-22T02:25:11.552Z,3.68
2019-03-22T02:26:11.580Z,3.59
2019-03-22T02:27:11.602Z,3.78
2019-03-22T02:28:11.638Z,3.66
2019-03-22T02:29:11.658Z,3.64
2019-03-22T02:30:11.685Z,3.70
2019-03-22T02:31:11.707Z,3.77
2019-03-22T02:32:11.736Z,3.82
2019-03-22T02:33:11.761Z,3.88
2019-03-22T02:34:11.792Z,3.92
2019-03-22T02:35:26.910Z,3.73
2019-03-22T02:36:11.838Z,3.73
2019-03-22T02:37:11.867Z,3.76
2019-03-22T02:38:11.890Z,3.74
2019-03-22T02:39:11.975Z,3.77
2019-03-22T02:40:11.942Z,3.68
2019-03-22T02:41:12.004Z,3.68
2019-03-22T02:42:11.995Z,3.66
2019-03-22T02:43:12.022Z,3.63
2019-03-22T02:44:12.047Z,3.61
2019-03-22T02:45:12.076Z,3.61
2019-03-22T02:46:12.099Z,3.77
2019-03-22T02:47:12.124Z,3.74
2019-03-22T02:48:12.150Z,3.73
2019-03-22T02:49:12.175Z,3.89
2019-03-22T02:50:18.437Z,3.94
2019-03-22T02:51:12.225Z,3.91
2019-03-22T02:52:12.255Z,3.85
2019-03-22T02:53:12.286Z,3.88
2019-03-22T02:54:12.305Z,3.89
2019-03-22T02:55:12.335Z,3.86
2019-03-22T02:56:12.523Z,3.89
2019-03-22T02:57:12.383Z,4.04
2019-03-22T02:58:20.418Z,4.02
2019-03-22T02:59:12.434Z,3.96
2019-03-22T03:00:12.478Z,4.02
2019-03-22T03:01:12.495Z,3.96
2019-03-22T03:02:12.527Z,4.04
2019-03-22T03:03:12.540Z,4.00
2019-03-22T03:04:12.563Z,3.95
2019-03-22T03:05:12.601Z,3.88
2019-03-22T03:06:12.618Z,3.91
2019-03-22T03:07:12.636Z,3.95
2019-03-22T03:08:12.665Z,3.96
2019-03-22T03:09:12.690Z,4.12
2019-03-22T03:10:12.714Z,4.13
2019-03-22T03:11:12.739Z,3.99
2019-03-22T03:12:12.768Z,4.12
2019-03-22T03:13:12.792Z,4.12
2019-03-22T03:14:12.818Z,4.13
2019-03-22T03:15:12.856Z,4.02
2019-03-22T03:16:12.880Z,3.99
2019-03-22T03:17:12.894Z,3.96
2019-03-22T03:18:12.928Z,3.99
2019-03-22T03:19:12.943Z,3.88
2019-03-22T03:20:12.979Z,3.91
2019-03-22T03:21:12.999Z,4.00
2019-03-22T03:22:13.024Z,4.02
2019-03-22T03:23:13.050Z,4.12
2019-03-22T03:24:13.075Z,3.96
2019-03-22T03:25:13.104Z,4.03
2019-03-22T03:26:13.130Z,4.10
2019-03-22T03:27:13.154Z,4.03
2019-03-22T03:28:13.175Z,4.00
2019-03-22T03:29:13.201Z,3.99
2019-03-22T03:30:13.229Z,3.88
2019-03-22T03:31:13.254Z,3.94
2019-03-22T03:32:13.279Z,3.88
2019-03-22T03:33:13.322Z,3.81
2019-03-22T03:34:13.331Z,3.89
2019-03-22T03:35:13.362Z,3.81
2019-03-22T03:36:13.380Z,3.84
2019-03-22T03:37:13.404Z,3.77
2019-03-22T03:38:13.432Z,3.71
2019-03-22T03:39:13.455Z,3.84
2019-03-22T03:40:13.484Z,3.73
2019-03-22T03:41:13.510Z,3.71
2019-03-22T03:42:13.535Z,3.76
2019-03-22T03:43:13.560Z,3.66
2019-03-22T03:44:13.587Z,3.61
2019-03-22T03:45:13.615Z,3.61
2019-03-22T03:46:13.655Z,3.56
2019-03-22T03:47:13.667Z,3.58
2019-03-22T03:48:13.686Z,3.68
2019-03-22T03:49:13.711Z,3.74
2019-03-22T03:50:13.737Z,3.78
2019-03-22T03:51:13.882Z,3.78
2019-03-22T03:52:13.791Z,3.63
2019-03-22T03:53:13.836Z,3.64
2019-03-22T03:54:13.845Z,3.66
2019-03-22T03:55:13.866Z,3.61
2019-03-22T03:56:13.890Z,3.61
2019-03-22T03:57:13.916Z,3.53
2019-03-22T03:58:13.941Z,3.55
2019-03-22T03:59:13.965Z,3.53
2019-03-22T04:00:13.991Z,3.67
2019-03-22T04:01:14.017Z,3.58
2019-03-22T04:02:14.043Z,3.61
2019-03-22T04:03:14.070Z,3.56
2019-03-22T04:04:14.099Z,3.61
2019-03-22T04:05:14.787Z,3.61
2019-03-22T04:06:14.146Z,3.55
2019-03-22T04:07:14.171Z,3.49
2019-03-22T04:08:14.194Z,3.53
2019-03-22T04:09:14.222Z,3.43
2019-03-22T04:10:14.247Z,3.53
2019-03-22T04:11:14.270Z,3.46
2019-03-22T04:12:14.297Z,3.50
2019-03-22T04:13:14.325Z,3.58
2019-03-22T04:14:14.348Z,3.67
2019-03-22T04:15:14.378Z,3.55
2019-03-22T04:16:14.413Z,3.56
2019-03-22T04:17:14.425Z,3.41
2019-03-22T04:18:14.452Z,3.40
2019-03-22T04:19:14.472Z,3.43
2019-03-22T04:20:14.504Z,3.34
2019-03-22T04:21:14.527Z,3.34
2019-03-22T04:22:14.558Z,3.34
2019-03-22T04:23:14.581Z,3.30
2019-03-22T04:24:14.629Z,3.36
2019-03-22T04:25:14.645Z,3.43
2019-03-22T04:26:14.653Z,3.37
2019-03-22T04:27:14.675Z,3.34
2019-03-22T04:28:14.702Z,3.31
2019-03-22T04:29:14.727Z,3.36
2019-03-22T04:30:14.754Z,3.37
2019-03-22T04:31:14.777Z,3.26
2019-03-22T04:32:14.805Z,3.33
2019-03-22T04:33:14.828Z,3.36
2019-03-22T04:34:14.853Z,3.13
2019-03-22T04:35:14.889Z,3.29
2019-03-22T04:36:14.904Z,3.27
2019-03-22T04:37:14.930Z,3.31
2019-03-22T04:38:14.955Z,3.21
2019-03-22T04:39:14.979Z,3.22
2019-03-22T04:40:15.007Z,3.33
2019-03-22T04:41:15.030Z,3.33
2019-03-22T04:42:15.057Z,3.29
2019-03-22T04:43:15.080Z,3.37
2019-03-22T04:44:15.103Z,3.36
2019-03-22T04:45:15.131Z,3.36
2019-03-22T04:46:15.158Z,3.34
2019-03-22T04:47:15.179Z,3.34
2019-03-22T04:48:15.213Z,3.50
2019-03-22T04:49:15.230Z,3.71
2019-03-22T04:50:15.259Z,3.94
2019-03-22T04:51:15.286Z,4.16
2019-03-22T04:52:15.307Z,4.36
2019-03-22T04:53:15.331Z,4.34
2019-03-22T04:54:15.360Z,4.42
2019-03-22T04:55:15.382Z,4.63
2019-03-22T04:56:15.411Z,4.75
2019-03-22T04:57:15.434Z,4.71
2019-03-22T04:58:15.460Z,4.90
2019-03-22T04:59:19.453Z,4.94
2019-03-22T05:00:15.512Z,5.00
2019-03-22T05:01:15.576Z,4.98
2019-03-22T05:02:15.561Z,4.90
2019-03-22T05:03:15.590Z,5.00
2019-03-22T05:04:15.618Z,5.07
2019-03-22T05:05:15.644Z,5.16
2019-03-22T05:06:15.669Z,5.12
2019-03-22T05:07:15.693Z,5.28
2019-03-22T05:08:15.725Z,5.37
2019-03-22T05:09:15.750Z,5.29
2019-03-22T05:10:15.774Z,5.25
2019-03-22T05:11:15.807Z,5.26
2019-03-22T05:12:15.831Z,5.43
2019-03-22T05:13:15.855Z,5.58
2019-03-22T05:14:15.884Z,5.56
2019-03-22T05:15:15.910Z,5.62
2019-03-22T05:16:15.935Z,5.87
2019-03-22T05:17:15.965Z,5.79
2019-03-22T05:18:15.993Z,5.84
2019-03-22T05:19:16.020Z,5.80
2019-03-22T05:20:16.049Z,5.92
2019-03-22T05:21:16.075Z,5.94
2019-03-22T05:22:16.102Z,6.17
2019-03-22T05:23:16.130Z,6.22
2019-03-22T05:24:18.161Z,5.99
2019-03-22T05:25:16.187Z,5.92
2019-03-22T05:26:16.216Z,5.92
2019-03-22T05:27:16.245Z,6.02
2019-03-22T05:28:16.269Z,6.26
2019-03-22T05:29:16.300Z,6.31
2019-03-22T05:30:16.325Z,5.94
2019-03-22T05:31:16.357Z,5.92
2019-03-22T05:32:16.389Z,6.34
2019-03-22T05:33:16.413Z,6.32
2019-03-22T05:34:16.445Z,6.50
2019-03-22T05:35:16.485Z,6.74
2019-03-22T05:36:16.495Z,6.68
2019-03-22T05:37:16.528Z,6.47
2019-03-22T05:38:16.556Z,6.50
2019-03-22T05:39:16.584Z,6.95
2019-03-22T05:40:16.610Z,6.87
2019-03-22T05:41:16.641Z,6.90
2019-03-22T05:42:16.673Z,6.46
2019-03-22T05:44:17.338Z,6.80
2019-03-22T05:45:16.756Z,6.53
2019-03-22T05:46:16.786Z,7.08
2019-03-22T05:47:16.818Z,6.70
2019-03-22T05:48:16.848Z,6.74
2019-03-22T05:49:16.874Z,6.92
2019-03-22T05:50:16.904Z,7.28
2019-03-22T05:51:16.934Z,7.37
2019-03-22T05:52:16.962Z,7.25
2019-03-22T05:53:16.997Z,7.36
2019-03-22T05:54:17.024Z,7.39
2019-03-22T05:55:17.052Z,7.50
2019-03-22T05:56:17.083Z,7.43
2019-03-22T05:57:17.118Z,7.22
2019-03-22T05:58:17.148Z,7.53
2019-03-22T05:59:17.179Z,7.47
2019-03-22T06:00:17.206Z,7.36
2019-03-22T06:01:17.233Z,7.39
2019-03-22T06:02:17.264Z,7.56
2019-03-22T06:03:17.295Z,7.41
2019-03-22T06:04:17.327Z,7.64
2019-03-22T06:05:17.383Z,7.53
2019-03-22T06:06:17.386Z,7.15
2019-03-22T06:07:17.417Z,7.15
2019-03-22T06:08:17.451Z,7.23
2019-03-22T06:09:17.480Z,7.58
2019-03-22T06:10:17.510Z,7.74
2019-03-22T06:11:17.541Z,7.72
2019-03-22T06:12:17.574Z,7.95
2019-03-22T06:13:17.603Z,8.23
2019-03-22T06:14:17.633Z,8.01
2019-03-22T06:15:17.664Z,7.99
2019-03-22T06:16:17.703Z,7.80
2019-03-22T06:17:17.726Z,7.87
2019-03-22T06:18:17.758Z,8.08
2019-03-22T06:19:17.789Z,8.08
2019-03-22T06:20:17.820Z,7.99
2019-03-22T06:21:17.854Z,8.17
2019-03-22T06:22:17.885Z,8.06
2019-03-22T06:23:17.916Z,8.53
2019-03-22T06:24:17.950Z,8.66
2019-03-22T06:25:17.984Z,8.31
2019-03-22T06:26:18.017Z,7.84
2019-03-22T06:27:18.043Z,7.72
2019-03-22T06:28:18.076Z,8.05
2019-03-22T06:29:18.108Z,8.34
2019-03-22T06:30:18.142Z,8.06
2019-03-22T06:31:20.661Z,8.05
2019-03-22T06:32:18.205Z,7.39
2019-03-22T06:33:18.236Z,7.55
2019-03-22T06:34:18.270Z,7.70
2019-03-22T06:35:18.302Z,7.78
2019-03-22T06:36:18.338Z,7.90
2019-03-22T06:37:18.374Z,7.67
2019-03-22T06:38:18.404Z,7.56
2019-03-22T06:39:18.429Z,7.64
2019-03-22T06:40:18.463Z,7.72
2019-03-22T06:41:18.498Z,7.55
2019-03-22T06:42:18.530Z,7.72
2019-03-22T06:43:18.559Z,8.14
2019-03-22T06:44:18.591Z,8.36
2019-03-22T06:45:18.625Z,8.38
2019-03-22T06:46:18.658Z,7.99
2019-03-22T06:47:18.693Z,7.95
2019-03-22T06:48:18.722Z,8.06
2019-03-22T06:49:18.756Z,8.02
2019-03-22T06:50:18.791Z,7.84
2019-03-22T06:51:18.820Z,8.03
2019-03-22T06:52:18.853Z,8.39
2019-03-22T06:53:18.889Z,8.53
2019-03-22T06:54:30.676Z,8.74
2019-03-22T06:55:18.952Z,8.78
2019-03-22T06:56:18.987Z,8.95
2019-03-22T06:57:19.023Z,8.87
2019-03-22T06:58:19.052Z,8.95
2019-03-22T06:59:19.085Z,8.41
2019-03-22T07:00:19.118Z,8.71
2019-03-22T07:01:19.152Z,8.05
2019-03-22T07:02:19.186Z,8.38
2019-03-22T07:03:19.219Z,8.39
2019-03-22T07:04:19.255Z,8.46
2019-03-22T07:05:19.289Z,8.31
2019-03-22T07:06:19.322Z,7.99
2019-03-22T07:07:19.359Z,8.32
2019-03-22T07:08:19.394Z,8.24
2019-03-22T07:09:19.419Z,8.06
2019-03-22T07:10:19.452Z,8.24
2019-03-22T07:11:19.485Z,8.38
2019-03-22T07:12:19.520Z,8.34
2019-03-22T07:13:19.555Z,8.44
2019-03-22T07:14:19.593Z,8.35
2019-03-22T07:15:19.623Z,8.38
2019-03-22T07:16:19.656Z,8.39
2019-03-22T07:17:19.688Z,8.21
2019-03-22T07:18:19.722Z,8.05
2019-03-22T07:19:19.757Z,7.96
2019-03-22T07:20:19.791Z,8.09
2019-03-22T07:21:19.827Z,8.23
2019-03-22T07:22:19.859Z,8.03
2019-03-22T07:23:19.891Z,8.34
2019-03-22T07:24:19.925Z,8.36
2019-03-22T07:25:19.961Z,8.35
2019-03-22T07:26:19.995Z,8.45
2019-03-22T07:27:20.032Z,8.53
2019-03-22T07:28:20.064Z,8.68
2019-03-22T07:29:20.094Z,8.49
2019-03-22T07:30:20.130Z,8.31
2019-03-22T07:31:20.163Z,8.08
2019-03-22T07:32:20.199Z,8.63
2019-03-22T07:33:20.234Z,8.21
2019-03-22T07:34:20.271Z,8.66
2019-03-22T07:35:20.299Z,8.66
2019-03-22T07:36:20.337Z,9.12
2019-03-22T07:37:20.372Z,8.87
2019-03-22T07:38:20.410Z,9.09
2019-03-22T07:39:20.437Z,8.74
2019-03-22T07:40:20.472Z,9.15
2019-03-22T07:41:20.507Z,8.99
2019-03-22T07:42:20.544Z,8.21
2019-03-22T07:43:20.582Z,8.20
2019-03-22T07:44:20.611Z,8.69
2019-03-22T07:45:20.649Z,8.71
2019-03-22T07:46:20.681Z,8.54
2019-03-22T07:47:20.721Z,8.34
2019-03-22T07:48:20.753Z,8.78
2019-03-22T07:49:20.789Z,8.61
2019-03-22T07:50:20.821Z,8.38
2019-03-22T07:51:20.909Z,8.21
2019-03-22T07:52:20.894Z,8.28
2019-03-22T07:53:20.926Z,8.59
2019-03-22T07:54:20.961Z,8.36
2019-03-22T07:55:20.995Z,7.98
2019-03-22T07:56:21.037Z,8.01
2019-03-22T07:57:21.067Z,7.74
2019-03-22T07:58:21.104Z,8.06
2019-03-22T07:59:21.136Z,8.49
2019-03-22T08:00:30.139Z,9.08
2019-03-22T08:01:21.205Z,8.90
2019-03-22T08:02:21.246Z,8.69
2019-03-22T08:03:21.278Z,8.38
2019-03-22T08:04:21.314Z,8.21
2019-03-22T08:05:21.349Z,8.14
2019-03-22T08:06:21.382Z,8.24
2019-03-22T08:07:21.415Z,8.49
2019-03-22T08:08:21.454Z,8.32
2019-03-22T08:09:21.489Z,8.38
2019-03-22T08:10:21.609Z,8.99
2019-03-22T08:11:24.541Z,9.13
2019-03-22T08:12:21.592Z,8.31
2019-03-22T08:13:21.659Z,8.66
2019-03-22T08:14:21.669Z,8.66
2019-03-22T08:15:21.698Z,9.03
2019-03-22T08:16:21.737Z,8.87
2019-03-22T08:17:21.769Z,8.89
2019-03-22T08:18:21.806Z,8.79
2019-03-22T08:19:21.840Z,8.50
2019-03-22T08:20:21.879Z,8.38
2019-03-22T08:21:21.919Z,8.23
2019-03-22T08:22:21.952Z,8.27
2019-03-22T08:23:22.016Z,8.71
2019-03-22T08:24:22.021Z,8.71
2019-03-22T08:25:22.096Z,8.57
2019-03-22T08:26:22.096Z,8.21
2019-03-22T08:27:22.129Z,8.34
2019-03-22T08:28:22.167Z,8.54
2019-03-22T08:29:22.201Z,9.27
2019-03-22T08:30:22.264Z,9.19
2019-03-22T08:31:22.269Z,8.79
2019-03-22T08:32:22.304Z,8.74
2019-03-22T08:33:22.345Z,9.19
2019-03-22T08:34:22.386Z,8.96
2019-03-22T08:35:22.419Z,8.72
2019-03-22T08:36:22.461Z,8.60
2019-03-22T08:37:22.491Z,8.60
2019-03-22T08:38:22.550Z,8.66
2019-03-22T08:39:22.558Z,8.86
2019-03-22T08:40:22.618Z,8.77
2019-03-22T08:41:23.914Z,8.95
2019-03-22T08:42:22.680Z,8.82
2019-03-22T08:43:22.710Z,8.56
2019-03-22T08:44:22.740Z,9.15
2019-03-22T08:45:22.786Z,9.16
2019-03-22T08:46:22.857Z,9.36
2019-03-22T08:47:33.138Z,9.24
2019-03-22T08:48:22.886Z,9.18
2019-03-22T08:49:23.079Z,9.19
2019-03-22T08:50:22.961Z,9.45
2019-03-22T08:51:22.997Z,9.45
2019-03-22T08:52:23.034Z,9.37
2019-03-22T08:53:23.085Z,8.92
2019-03-22T08:54:23.128Z,8.49
2019-03-22T08:55:23.198Z,8.49
2019-03-22T08:56:23.181Z,8.95
2019-03-22T08:57:25.020Z,9.76
2019-03-22T08:58:23.255Z,9.47
2019-03-22T08:59:23.314Z,9.66
2019-03-22T09:00:23.353Z,9.11
2019-03-22T09:01:23.407Z,9.03
2019-03-22T09:02:23.409Z,8.71
2019-03-22T09:03:23.443Z,9.00
2019-03-22T09:04:23.480Z,9.29
2019-03-22T09:05:23.518Z,9.40
2019-03-22T09:06:23.562Z,9.24
2019-03-22T09:07:24.587Z,9.00
2019-03-22T09:08:23.628Z,8.84
2019-03-22T09:09:23.674Z,9.45
2019-03-22T09:10:23.710Z,9.40
2019-03-22T09:11:23.743Z,9.55
2019-03-22T09:12:26.782Z,9.45
2019-03-22T09:13:23.816Z,9.02
2019-03-22T09:14:23.874Z,9.12
2019-03-22T09:15:23.895Z,9.12
2019-03-22T09:16:23.927Z,9.21
2019-03-22T09:17:23.961Z,8.96
2019-03-22T09:18:24.035Z,8.97
2019-03-22T09:19:24.037Z,8.57
2019-03-22T09:20:24.132Z,8.68
2019-03-22T09:21:24.114Z,8.77
2019-03-22T09:22:24.172Z,9.16
2019-03-22T09:23:24.193Z,9.15
2019-03-22T09:24:24.227Z,9.56
2019-03-22T09:25:24.260Z,9.16
2019-03-22T09:26:24.345Z,9.40
2019-03-22T09:27:24.337Z,9.31
2019-03-22T09:28:24.372Z,8.82
2019-03-22T09:29:24.412Z,9.16
2019-03-22T09:30:24.447Z,9.55
2019-03-22T09:31:24.485Z,9.13
2019-03-22T09:32:24.533Z,8.78
2019-03-22T09:33:24.594Z,8.53
2019-03-22T09:34:33.710Z,8.84
2019-03-22T09:35:24.653Z,8.81
2019-03-22T09:36:24.670Z,8.81
2019-03-22T09:37:24.709Z,8.89
2019-03-22T09:38:24.808Z,9.00
2019-03-22T09:39:24.783Z,8.97
2019-03-22T09:40:24.818Z,9.42
2019-03-22T09:41:24.859Z,9.45
2019-03-22T09:42:24.894Z,9.82
2019-03-22T09:43:25.024Z,9.66
2019-03-22T09:44:27.960Z,9.76
2019-03-22T09:45:25.006Z,9.70
2019-03-22T09:46:25.043Z,9.42
2019-03-22T09:47:25.081Z,8.93
2019-03-22T09:48:25.139Z,8.86
2019-03-22T09:49:25.192Z,9.12
2019-03-22T09:50:25.199Z,9.05
2019-03-22T09:51:25.285Z,9.18
2019-03-22T09:52:25.268Z,9.29
2019-03-22T09:53:25.319Z,9.19
2019-03-22T09:54:25.383Z,9.16
2019-03-22T09:55:25.389Z,9.08
2019-03-22T09:56:25.414Z,9.26
2019-03-22T09:57:25.451Z,9.30
2019-03-22T09:58:25.547Z,9.03
2019-03-22T09:59:25.549Z,9.13
2019-03-22T10:00:25.561Z,8.99
2019-03-22T10:01:25.712Z,9.03
2019-03-22T10:02:25.640Z,9.11
2019-03-22T10:03:25.689Z,9.24
2019-03-22T10:04:25.712Z,9.37
2019-03-22T10:05:25.750Z,9.90
2019-03-22T10:06:25.852Z,9.45
2019-03-22T10:07:25.826Z,9.55
2019-03-22T10:08:25.891Z,9.72
2019-03-22T10:09:25.899Z,9.55
2019-03-22T10:10:25.967Z,9.77
2019-03-22T10:11:25.970Z,10.09
2019-03-22T10:12:26.008Z,9.40
2019-03-22T10:13:26.046Z,9.44
2019-03-22T10:14:26.100Z,9.15
2019-03-22T10:15:26.137Z,9.36
2019-03-22T10:16:26.255Z,8.86
2019-03-22T10:17:26.198Z,9.15
2019-03-22T10:18:26.238Z,9.13
2019-03-22T10:19:26.270Z,9.30
2019-03-22T10:20:26.358Z,9.64
2019-03-22T10:21:26.397Z,10.02
2019-03-22T10:22:26.412Z,9.62
2019-03-22T10:23:26.420Z,9.66
2019-03-22T10:24:26.470Z,9.82
2019-03-22T10:25:26.598Z,9.84
2019-03-22T10:26:26.570Z,10.05
2019-03-22T10:27:26.590Z,9.80
2019-03-22T10:28:26.668Z,9.19
2019-03-22T10:29:26.646Z,9.13
2019-03-22T10:30:26.685Z,9.11
2019-03-22T10:31:36.420Z,9.22
2019-03-22T10:32:26.761Z,8.97
2019-03-22T10:33:26.820Z,9.08
2019-03-22T10:34:26.902Z,9.09
2019-03-22T10:35:26.900Z,9.33
2019-03-22T10:36:26.963Z,9.90
2019-03-22T10:37:26.939Z,9.56
2019-03-22T10:38:31.695Z,9.21
2019-03-22T10:39:27.032Z,8.92
2019-03-22T10:40:27.137Z,9.02
2019-03-22T10:41:27.091Z,9.40
2019-03-22T10:42:27.166Z,9.21
2019-03-22T10:43:27.160Z,8.74
2019-03-22T10:44:27.201Z,8.77
2019-03-22T10:45:27.282Z,8.93
2019-03-22T10:46:27.329Z,8.71
2019-03-22T10:47:27.425Z,9.21
2019-03-22T10:48:27.345Z,9.15
2019-03-22T10:49:27.383Z,9.39
2019-03-22T10:50:27.526Z,9.08
2019-03-22T10:51:27.529Z,9.15
2019-03-22T10:52:27.493Z,9.36
2019-03-22T10:53:27.529Z,8.96
2019-03-22T10:54:27.617Z,9.15
2019-03-22T10:55:30.436Z,9.39
2019-03-22T10:56:27.637Z,9.42
2019-03-22T10:57:27.674Z,9.18
2019-03-22T10:58:27.716Z,9.51
2019-03-22T10:59:27.748Z,9.52
2019-03-22T11:00:27.783Z,9.03
2019-03-22T11:01:27.827Z,8.92
2019-03-22T11:02:27.857Z,8.75
2019-03-22T11:03:27.932Z,9.05
2019-03-22T11:04:27.931Z,9.30
2019-03-22T11:05:27.968Z,9.16
2019-03-22T11:06:28.004Z,9.09
2019-03-22T11:07:28.039Z,8.77
2019-03-22T11:08:28.077Z,9.08
2019-03-22T11:09:28.116Z,9.13
2019-03-22T11:10:28.153Z,8.96
2019-03-22T11:11:28.186Z,8.90
2019-03-22T11:12:28.221Z,9.33
2019-03-22T11:13:28.260Z,9.29
2019-03-22T11:14:28.297Z,9.36
2019-03-22T11:15:28.332Z,8.97
2019-03-22T11:16:28.368Z,9.13
2019-03-22T11:17:28.408Z,8.97
2019-03-22T11:18:36.952Z,8.74
2019-03-22T11:19:28.478Z,8.92
2019-03-22T11:20:28.517Z,9.18
2019-03-22T11:21:28.551Z,9.26
2019-03-22T11:22:28.591Z,9.15
2019-03-22T11:23:28.626Z,9.73
2019-03-22T11:24:28.661Z,9.55
2019-03-22T11:25:28.700Z,9.64
2019-03-22T11:26:28.735Z,9.59
2019-03-22T11:27:28.771Z,9.21
2019-03-22T11:28:28.807Z,9.13
2019-03-22T11:29:28.847Z,9.56
2019-03-22T11:30:28.883Z,9.73
2019-03-22T11:31:39.203Z,9.88
2019-03-22T11:32:28.954Z,9.18
2019-03-22T11:33:28.991Z,9.18
2019-03-22T11:34:29.027Z,9.42
2019-03-22T11:35:29.067Z,9.33
2019-03-22T11:36:29.104Z,9.56
2019-03-22T11:37:29.137Z,9.39
2019-03-22T11:38:29.180Z,9.13
2019-03-22T11:39:29.225Z,9.52
2019-03-22T11:40:29.247Z,9.88
2019-03-22T11:41:29.285Z,9.82
2019-03-22T11:42:29.321Z,9.40
2019-03-22T11:43:29.359Z,9.72
2019-03-22T11:44:29.397Z,9.36
2019-03-22T11:45:29.433Z,9.21
2019-03-22T11:46:31.048Z,9.88
2019-03-22T11:47:29.517Z,10.27
2019-03-22T11:48:29.547Z,9.56
2019-03-22T11:49:29.580Z,9.94
2019-03-22T11:50:29.617Z,9.84
2019-03-22T11:51:29.654Z,9.70
2019-03-22T11:52:29.691Z,9.72
2019-03-22T11:53:29.729Z,9.55
2019-03-22T11:54:29.765Z,9.82
2019-03-22T11:55:29.800Z,9.92
2019-03-22T11:56:29.837Z,9.81
2019-03-22T11:57:29.875Z,9.52
2019-03-22T11:58:29.916Z,9.87
2019-03-22T11:59:29.952Z,10.17
2019-03-22T12:00:29.986Z,10.09
2019-03-22T12:01:30.022Z,9.80
2019-03-22T12:02:30.059Z,9.77
2019-03-22T12:03:30.096Z,9.49
2019-03-22T12:04:30.134Z,9.97
2019-03-22T12:05:39.870Z,10.31
2019-03-22T12:06:30.211Z,9.84
2019-03-22T12:07:30.246Z,10.10
2019-03-22T12:08:30.287Z,10.24
2019-03-22T12:09:30.320Z,10.38
2019-03-22T12:10:30.358Z,10.71
2019-03-22T12:11:30.394Z,10.76
2019-03-22T12:12:30.432Z,10.69
2019-03-22T12:13:30.476Z,10.21
2019-03-22T12:14:30.507Z,9.99
2019-03-22T12:15:30.552Z,9.97
2019-03-22T12:16:30.585Z,9.97
2019-03-22T12:17:30.651Z,9.91
2019-03-22T12:18:30.659Z,10.41
2019-03-22T12:19:30.698Z,10.86
2019-03-22T12:20:30.734Z,10.97
2019-03-22T12:21:30.773Z,10.94
2019-03-22T12:22:30.810Z,10.15
2019-03-22T12:23:30.848Z,9.94
2019-03-22T12:24:30.885Z,9.88
2019-03-22T12:25:30.927Z,10.18
2019-03-22T12:26:30.962Z,10.15
2019-03-22T12:27:36.510Z,10.58
2019-03-22T12:28:31.035Z,10.10
2019-03-22T12:29:31.073Z,10.18
2019-03-22T12:30:31.112Z,10.13
2019-03-22T12:31:31.148Z,10.15
2019-03-22T12:32:32.341Z,9.80
2019-03-22T12:33:31.225Z,9.82
2019-03-22T12:34:31.263Z,9.92
2019-03-22T12:35:31.302Z,9.64
2019-03-22T12:36:31.338Z,9.73
2019-03-22T12:37:31.377Z,10.03
2019-03-22T12:38:31.413Z,10.20
2019-03-22T12:39:31.456Z,9.74
2019-03-22T12:40:31.488Z,9.52
2019-03-22T12:41:31.530Z,9.99
2019-03-22T12:42:31.566Z,9.55
2019-03-22T12:43:31.600Z,9.13
2019-03-22T12:44:31.639Z,8.56
2019-03-22T12:45:31.676Z,7.95
2019-03-22T12:46:31.728Z,7.70
2019-03-22T12:47:31.751Z,7.80
2019-03-22T12:48:31.788Z,7.72
2019-03-22T12:49:32.016Z,7.72
2019-03-22T12:50:31.857Z,7.66
2019-03-22T12:51:31.889Z,7.69
2019-03-22T12:52:31.927Z,7.85
2019-03-22T12:53:31.958Z,7.96
2019-03-22T12:54:31.993Z,8.03
2019-03-22T12:55:32.026Z,7.95
2019-03-22T12:56:32.063Z,7.98
2019-03-22T12:57:32.093Z,7.83
2019-03-22T12:58:32.127Z,7.69
2019-03-22T12:59:32.158Z,7.77
2019-03-22T13:00:32.187Z,7.87
2019-03-22T13:01:32.222Z,8.02
2019-03-22T13:02:41.863Z,8.02
2019-03-22T13:03:32.283Z,8.01
2019-03-22T13:04:32.315Z,8.35
2019-03-22T13:05:32.345Z,8.36
2019-03-22T13:06:32.379Z,8.11
2019-03-22T13:07:32.408Z,7.99
2019-03-22T13:08:33.859Z,8.02
2019-03-22T13:09:32.475Z,8.02
2019-03-22T13:10:32.504Z,7.83
2019-03-22T13:11:32.539Z,7.75
2019-03-22T13:12:32.563Z,7.99
2019-03-22T13:13:32.594Z,7.59
2019-03-22T13:14:32.624Z,7.59
2019-03-22T13:15:32.652Z,7.74
2019-03-22T13:16:32.685Z,7.69
2019-03-22T13:17:32.717Z,7.44
2019-03-22T13:18:33.266Z,7.64